sensor_id;sensor_type;location;lat;lon;timestamp;temperature;humidity
1461;DHT22;724;49.910;12.530;2023-08-17T00:02:18;16.40;99.90
1461;DHT22;724;49.910;12.530;2023-08-17T00:04:45;16.30;99.90
1461;DHT22;724;49.910;12.530;2023-08-17T00:07:12;16.20;99.90
1461;DHT22;724;49.910;12.530;2023-08-17T00:09:39;16.20;99.90
1461;DHT22;724;49.910;12.530;2023-08-17T00:12:06;16.20;99.90
1461;DHT22;724;49.910;12.530;2023-08-17T00:14:33;16.10;99.90
1461;DHT22;724;49.910;12.530;2023-08-17T00:17:01;16.10;99.90
1461;DHT22;724;49.910;12.530;2023-08-17T00:19:28;16.10;99.90
1461;DHT22;724;49.910;12.530;2023-08-17T00:21:55;16.10;99.90
1461;DHT22;724;49.910;12.530;2023-08-17T00:24:21;16.10;99.90
1461;DHT22;724;49.910;12.530;2023-08-17T00:26:48;16.30;99.90
1461;DHT22;724;49.910;12.530;2023-08-17T00:29:15;16.60;99.90
1461;DHT22;724;49.910;12.530;2023-08-17T00:31:42;16.70;99.90
1461;DHT22;724;49.910;12.530;2023-08-17T00:34:10;16.50;99.90
1461;DHT22;724;49.910;12.530;2023-08-17T00:36:37;16.20;99.90
1461;DHT22;724;49.910;12.530;2023-08-17T00:39:04;16.10;99.90
1461;DHT22;724;49.910;12.530;2023-08-17T00:41:31;16.10;99.90
1461;DHT22;724;49.910;12.530;2023-08-17T00:43:58;16.20;99.90
1461;DHT22;724;49.910;12.530;2023-08-17T00:46:25;16.20;99.90
1461;DHT22;724;49.910;12.530;2023-08-17T00:48:53;16.20;99.90
1461;DHT22;724;49.910;12.530;2023-08-17T00:51:22;16.30;99.90
1461;DHT22;724;49.910;12.530;2023-08-17T00:53:50;16.30;99.90
1461;DHT22;724;49.910;12.530;2023-08-17T00:56:17;16.20;99.90
1461;DHT22;724;49.910;12.530;2023-08-17T00:58:44;16.20;99.90
1461;DHT22;724;49.910;12.530;2023-08-17T01:01:11;16.10;99.90
1461;DHT22;724;49.910;12.530;2023-08-17T01:03:40;16.10;99.90
1461;DHT22;724;49.910;12.530;2023-08-17T01:06:07;16.10;99.90
1461;DHT22;724;49.910;12.530;2023-08-17T01:08:36;16.20;99.90
1461;DHT22;724;49.910;12.530;2023-08-17T01:11:08;16.30;99.90
1461;DHT22;724;49.910;12.530;2023-08-17T01:13:44;16.40;99.90
1461;DHT22;724;49.910;12.530;2023-08-17T01:16:19;16.40;99.90
1461;DHT22;724;49.910;12.530;2023-08-17T01:18:48;16.50;99.90
1461;DHT22;724;49.910;12.530;2023-08-17T01:21:17;16.60;99.90
1461;DHT22;724;49.910;12.530;2023-08-17T01:23:46;16.70;99.90
1461;DHT22;724;49.910;12.530;2023-08-17T01:26:15;16.70;99.90
1461;DHT22;724;49.910;12.530;2023-08-17T01:28:42;16.80;99.90
1461;DHT22;724;49.910;12.530;2023-08-17T01:31:12;16.80;99.90
1461;DHT22;724;49.910;12.530;2023-08-17T01:33:44;17.00;99.90
1461;DHT22;724;49.910;12.530;2023-08-17T01:36:16;17.10;99.90
1461;DHT22;724;49.910;12.530;2023-08-17T01:38:46;17.10;99.90
1461;DHT22;724;49.910;12.530;2023-08-17T01:41:13;16.90;99.90
1461;DHT22;724;49.910;12.530;2023-08-17T01:43:42;16.50;99.90
1461;DHT22;724;49.910;12.530;2023-08-17T01:46:13;16.40;99.90
1461;DHT22;724;49.910;12.530;2023-08-17T01:48:40;16.40;99.90
1461;DHT22;724;49.910;12.530;2023-08-17T01:51:06;16.30;99.90
1461;DHT22;724;49.910;12.530;2023-08-17T01:53:33;16.40;99.90
1461;DHT22;724;49.910;12.530;2023-08-17T01:56:01;16.30;99.90
1461;DHT22;724;49.910;12.530;2023-08-17T01:58:28;16.30;99.90
1461;DHT22;724;49.910;12.530;2023-08-17T02:00:55;16.30;99.90
1461;DHT22;724;49.910;12.530;2023-08-17T02:03:22;16.40;99.90
1461;DHT22;724;49.910;12.530;2023-08-17T02:05:48;16.30;99.90
1461;DHT22;724;49.910;12.530;2023-08-17T02:08:15;16.30;99.90
1461;DHT22;724;49.910;12.530;2023-08-17T02:10:42;16.30;99.90
1461;DHT22;724;49.910;12.530;2023-08-17T02:13:10;16.20;99.90
1461;DHT22;724;49.910;12.530;2023-08-17T02:15:38;16.10;99.90
1461;DHT22;724;49.910;12.530;2023-08-17T02:18:05;16.00;99.90
1461;DHT22;724;49.910;12.530;2023-08-17T02:20:32;15.90;99.90
1461;DHT22;724;49.910;12.530;2023-08-17T02:22:59;15.90;99.90
1461;DHT22;724;49.910;12.530;2023-08-17T02:25:26;15.80;99.90
1461;DHT22;724;49.910;12.530;2023-08-17T02:27:59;15.80;99.90
1461;DHT22;724;49.910;12.530;2023-08-17T02:30:27;15.80;99.90
1461;DHT22;724;49.910;12.530;2023-08-17T02:32:54;15.90;99.90
1461;DHT22;724;49.910;12.530;2023-08-17T02:35:21;16.00;99.90
1461;DHT22;724;49.910;12.530;2023-08-17T02:37:48;16.00;99.90
1461;DHT22;724;49.910;12.530;2023-08-17T02:40:15;16.10;99.90
1461;DHT22;724;49.910;12.530;2023-08-17T02:42:42;16.10;99.90
1461;DHT22;724;49.910;12.530;2023-08-17T02:45:09;15.90;99.90
1461;DHT22;724;49.910;12.530;2023-08-17T02:47:37;15.80;99.90
1461;DHT22;724;49.910;12.530;2023-08-17T02:50:05;15.80;99.90
1461;DHT22;724;49.910;12.530;2023-08-17T02:52:33;15.80;99.90
1461;DHT22;724;49.910;12.530;2023-08-17T02:55:00;15.80;99.90
1461;DHT22;724;49.910;12.530;2023-08-17T02:57:27;15.90;99.90
1461;DHT22;724;49.910;12.530;2023-08-17T02:59:53;15.90;99.90
1461;DHT22;724;49.910;12.530;2023-08-17T03:02:20;16.00;99.90
1461;DHT22;724;49.910;12.530;2023-08-17T03:04:48;16.00;99.90
1461;DHT22;724;49.910;12.530;2023-08-17T03:07:15;16.00;99.90
1461;DHT22;724;49.910;12.530;2023-08-17T03:09:42;15.90;99.90
1461;DHT22;724;49.910;12.530;2023-08-17T03:12:08;15.90;99.90
1461;DHT22;724;49.910;12.530;2023-08-17T03:14:35;15.80;99.90
1461;DHT22;724;49.910;12.530;2023-08-17T03:17:02;15.80;99.90
1461;DHT22;724;49.910;12.530;2023-08-17T03:19:29;15.80;99.90
1461;DHT22;724;49.910;12.530;2023-08-17T03:21:57;15.70;99.90
1461;DHT22;724;49.910;12.530;2023-08-17T03:24:24;15.60;99.90
1461;DHT22;724;49.910;12.530;2023-08-17T03:26:50;15.60;99.90
1461;DHT22;724;49.910;12.530;2023-08-17T03:29:17;15.60;99.90
1461;DHT22;724;49.910;12.530;2023-08-17T03:31:44;15.50;99.90
1461;DHT22;724;49.910;12.530;2023-08-17T03:34:11;15.50;99.90
1461;DHT22;724;49.910;12.530;2023-08-17T03:36:38;15.60;99.90
1461;DHT22;724;49.910;12.530;2023-08-17T03:39:06;15.70;99.90
1461;DHT22;724;49.910;12.530;2023-08-17T03:41:33;15.60;99.90
1461;DHT22;724;49.910;12.530;2023-08-17T03:44:02;15.70;99.90
1461;DHT22;724;49.910;12.530;2023-08-17T03:46:29;15.70;99.90
1461;DHT22;724;49.910;12.530;2023-08-17T03:48:55;15.70;99.90
1461;DHT22;724;49.910;12.530;2023-08-17T03:51:22;15.60;99.90
1461;DHT22;724;49.910;12.530;2023-08-17T03:53:49;15.50;99.90
1461;DHT22;724;49.910;12.530;2023-08-17T03:56:17;15.50;99.90
1461;DHT22;724;49.910;12.530;2023-08-17T03:58:44;15.40;99.90
1461;DHT22;724;49.910;12.530;2023-08-17T04:01:11;15.50;99.90
1461;DHT22;724;49.910;12.530;2023-08-17T04:03:38;15.50;99.90
1461;DHT22;724;49.910;12.530;2023-08-17T04:06:05;15.60;99.90
1461;DHT22;724;49.910;12.530;2023-08-17T04:08:35;15.60;99.90
1461;DHT22;724;49.910;12.530;2023-08-17T04:11:02;15.70;99.90
1461;DHT22;724;49.910;12.530;2023-08-17T04:13:30;15.80;99.90
1461;DHT22;724;49.910;12.530;2023-08-17T04:15:57;15.80;99.90
1461;DHT22;724;49.910;12.530;2023-08-17T04:18:24;15.90;99.90
1461;DHT22;724;49.910;12.530;2023-08-17T04:20:50;15.90;99.90
1461;DHT22;724;49.910;12.530;2023-08-17T04:23:17;16.00;99.90
1461;DHT22;724;49.910;12.530;2023-08-17T04:25:44;15.80;99.90
1461;DHT22;724;49.910;12.530;2023-08-17T04:28:11;15.60;99.90
1461;DHT22;724;49.910;12.530;2023-08-17T04:30:39;15.60;99.90
1461;DHT22;724;49.910;12.530;2023-08-17T04:33:06;15.80;99.90
1461;DHT22;724;49.910;12.530;2023-08-17T04:35:33;15.90;99.90
1461;DHT22;724;49.910;12.530;2023-08-17T04:38:00;16.00;99.90
1461;DHT22;724;49.910;12.530;2023-08-17T04:40:27;16.10;99.90
1461;DHT22;724;49.910;12.530;2023-08-17T04:42:54;16.20;99.90
1461;DHT22;724;49.910;12.530;2023-08-17T04:45:20;16.30;99.90
1461;DHT22;724;49.910;12.530;2023-08-17T04:47:48;16.40;99.90
1461;DHT22;724;49.910;12.530;2023-08-17T04:50:15;16.50;99.90
1461;DHT22;724;49.910;12.530;2023-08-17T04:52:42;16.50;99.90
1461;DHT22;724;49.910;12.530;2023-08-17T04:55:09;16.50;99.90
1461;DHT22;724;49.910;12.530;2023-08-17T04:57:36;16.60;99.90
1461;DHT22;724;49.910;12.530;2023-08-17T05:00:04;16.60;99.90
1461;DHT22;724;49.910;12.530;2023-08-17T05:02:34;16.70;99.90
1461;DHT22;724;49.910;12.530;2023-08-17T05:05:04;16.80;99.90
1461;DHT22;724;49.910;12.530;2023-08-17T05:07:32;17.00;79.20
1461;DHT22;724;49.910;12.530;2023-08-17T05:09:59;17.20;1.00
1461;DHT22;724;49.910;12.530;2023-08-17T05:12:26;17.40;99.90
1461;DHT22;724;49.910;12.530;2023-08-17T05:14:53;17.40;1.00
1461;DHT22;724;49.910;12.530;2023-08-17T05:17:19;17.70;1.00
1461;DHT22;724;49.910;12.530;2023-08-17T05:19:46;17.90;99.90
1461;DHT22;724;49.910;12.530;2023-08-17T05:22:14;18.10;1.00
1461;DHT22;724;49.910;12.530;2023-08-17T05:24:41;18.10;1.00
1461;DHT22;724;49.910;12.530;2023-08-17T05:27:08;17.90;99.90
1461;DHT22;724;49.910;12.530;2023-08-17T05:29:35;17.90;99.90
1461;DHT22;724;49.910;12.530;2023-08-17T05:32:01;17.90;1.00
1461;DHT22;724;49.910;12.530;2023-08-17T05:34:28;17.80;74.40
1461;DHT22;724;49.910;12.530;2023-08-17T05:36:55;18.10;1.00
1461;DHT22;724;49.910;12.530;2023-08-17T05:39:23;18.70;1.00
1461;DHT22;724;49.910;12.530;2023-08-17T05:41:50;19.30;1.00
1461;DHT22;724;49.910;12.530;2023-08-17T05:44:17;19.80;99.90
1461;DHT22;724;49.910;12.530;2023-08-17T05:46:44;19.90;1.00
1461;DHT22;724;49.910;12.530;2023-08-17T05:49:11;19.70;1.00
1461;DHT22;724;49.910;12.530;2023-08-17T05:51:37;19.20;1.00
1461;DHT22;724;49.910;12.530;2023-08-17T05:54:04;18.90;1.00
1461;DHT22;724;49.910;12.530;2023-08-17T05:56:33;18.90;99.90
1461;DHT22;724;49.910;12.530;2023-08-17T05:59:00;19.10;1.00
1461;DHT22;724;49.910;12.530;2023-08-17T06:01:26;19.20;1.00
1461;DHT22;724;49.910;12.530;2023-08-17T06:03:53;19.30;1.00
1461;DHT22;724;49.910;12.530;2023-08-17T06:06:20;19.50;1.00
1461;DHT22;724;49.910;12.530;2023-08-17T06:08:49;19.70;99.90
1461;DHT22;724;49.910;12.530;2023-08-17T06:11:16;19.80;99.90
1461;DHT22;724;49.910;12.530;2023-08-17T06:13:44;20.20;99.90
1461;DHT22;724;49.910;12.530;2023-08-17T06:16:11;20.00;1.00
1461;DHT22;724;49.910;12.530;2023-08-17T06:18:39;20.20;1.00
1461;DHT22;724;49.910;12.530;2023-08-17T06:21:06;20.10;99.90
1461;DHT22;724;49.910;12.530;2023-08-17T06:23:32;20.00;1.00
1461;DHT22;724;49.910;12.530;2023-08-17T06:25:59;21.40;99.90
1461;DHT22;724;49.910;12.530;2023-08-17T06:28:27;21.60;99.90
1461;DHT22;724;49.910;12.530;2023-08-17T06:30:55;21.60;99.90
1461;DHT22;724;49.910;12.530;2023-08-17T06:33:22;23.60;1.00
1461;DHT22;724;49.910;12.530;2023-08-17T06:35:49;21.90;1.00
1461;DHT22;724;49.910;12.530;2023-08-17T06:38:16;22.10;1.00
1461;DHT22;724;49.910;12.530;2023-08-17T06:40:44;22.20;1.00
1461;DHT22;724;49.910;12.530;2023-08-17T06:43:11;23.20;1.00
1461;DHT22;724;49.910;12.530;2023-08-17T06:45:38;24.70;99.90
1461;DHT22;724;49.910;12.530;2023-08-17T06:48:06;23.70;99.90
1461;DHT22;724;49.910;12.530;2023-08-17T06:50:33;24.50;99.90
1461;DHT22;724;49.910;12.530;2023-08-17T06:53:01;24.10;77.30
1461;DHT22;724;49.910;12.530;2023-08-17T06:55:27;24.30;1.00
1461;DHT22;724;49.910;12.530;2023-08-17T06:57:54;24.50;1.00
1461;DHT22;724;49.910;12.530;2023-08-17T07:00:21;23.00;45.40
1461;DHT22;724;49.910;12.530;2023-08-17T07:02:48;22.80;99.90
1461;DHT22;724;49.910;12.530;2023-08-17T07:05:17;22.30;99.90
1461;DHT22;724;49.910;12.530;2023-08-17T07:07:44;21.80;99.90
1461;DHT22;724;49.910;12.530;2023-08-17T07:10:11;21.30;1.00
1461;DHT22;724;49.910;12.530;2023-08-17T07:12:38;21.60;1.00
1461;DHT22;724;49.910;12.530;2023-08-17T07:15:06;21.60;1.00
1461;DHT22;724;49.910;12.530;2023-08-17T07:17:33;21.80;1.00
1461;DHT22;724;49.910;12.530;2023-08-17T07:20:02;21.80;1.00
1461;DHT22;724;49.910;12.530;2023-08-17T07:22:30;21.80;1.00
1461;DHT22;724;49.910;12.530;2023-08-17T07:24:57;21.90;1.00
1461;DHT22;724;49.910;12.530;2023-08-17T07:27:24;22.30;1.00
1461;DHT22;724;49.910;12.530;2023-08-17T07:29:51;23.20;99.90
1461;DHT22;724;49.910;12.530;2023-08-17T07:32:18;23.40;95.70
1461;DHT22;724;49.910;12.530;2023-08-17T07:34:44;23.40;99.90
1461;DHT22;724;49.910;12.530;2023-08-17T07:37:11;22.90;99.90
1461;DHT22;724;49.910;12.530;2023-08-17T07:39:39;23.50;99.90
1461;DHT22;724;49.910;12.530;2023-08-17T07:42:06;23.00;99.90
1461;DHT22;724;49.910;12.530;2023-08-17T07:44:33;22.50;99.90
1461;DHT22;724;49.910;12.530;2023-08-17T07:47:00;23.00;99.90
1461;DHT22;724;49.910;12.530;2023-08-17T07:49:28;22.90;99.90
1461;DHT22;724;49.910;12.530;2023-08-17T07:51:54;22.60;99.90
1461;DHT22;724;49.910;12.530;2023-08-17T07:54:21;22.60;99.90
1461;DHT22;724;49.910;12.530;2023-08-17T07:56:49;22.30;99.90
1461;DHT22;724;49.910;12.530;2023-08-17T07:59:16;22.30;99.90
1461;DHT22;724;49.910;12.530;2023-08-17T08:01:43;22.40;99.90
1461;DHT22;724;49.910;12.530;2023-08-17T08:04:09;22.90;99.90
1461;DHT22;724;49.910;12.530;2023-08-17T08:06:36;24.20;99.90
1461;DHT22;724;49.910;12.530;2023-08-17T08:09:03;24.30;1.00
1461;DHT22;724;49.910;12.530;2023-08-17T08:11:30;25.50;1.00
1461;DHT22;724;49.910;12.530;2023-08-17T08:13:58;24.70;1.00
1461;DHT22;724;49.910;12.530;2023-08-17T08:16:26;25.30;1.00
1461;DHT22;724;49.910;12.530;2023-08-17T08:18:53;25.10;1.00
1461;DHT22;724;49.910;12.530;2023-08-17T08:21:19;24.60;1.00
1461;DHT22;724;49.910;12.530;2023-08-17T08:23:46;24.10;1.00
1461;DHT22;724;49.910;12.530;2023-08-17T08:26:13;23.40;1.00
1461;DHT22;724;49.910;12.530;2023-08-17T08:28:40;23.40;1.00
1461;DHT22;724;49.910;12.530;2023-08-17T08:31:08;22.80;1.00
1461;DHT22;724;49.910;12.530;2023-08-17T08:33:35;22.60;1.00
1461;DHT22;724;49.910;12.530;2023-08-17T08:36:01;23.20;1.00
1461;DHT22;724;49.910;12.530;2023-08-17T08:38:28;23.60;1.00
1461;DHT22;724;49.910;12.530;2023-08-17T08:40:55;23.20;1.00
1461;DHT22;724;49.910;12.530;2023-08-17T08:43:22;22.90;1.00
1461;DHT22;724;49.910;12.530;2023-08-17T08:45:51;22.90;1.00
1461;DHT22;724;49.910;12.530;2023-08-17T08:48:22;23.00;1.00
1461;DHT22;724;49.910;12.530;2023-08-17T08:50:50;22.00;1.00
1461;DHT22;724;49.910;12.530;2023-08-17T08:53:21;22.30;78.10
1461;DHT22;724;49.910;12.530;2023-08-17T08:55:54;22.80;54.10
1461;DHT22;724;49.910;12.530;2023-08-17T08:58:22;22.80;1.00
1461;DHT22;724;49.910;12.530;2023-08-17T09:00:49;22.60;53.20
1461;DHT22;724;49.910;12.530;2023-08-17T09:03:16;22.30;40.30
1461;DHT22;724;49.910;12.530;2023-08-17T09:05:47;22.90;98.20
1461;DHT22;724;49.910;12.530;2023-08-17T09:08:15;23.40;1.00
1461;DHT22;724;49.910;12.530;2023-08-17T09:10:42;23.10;1.00
1461;DHT22;724;49.910;12.530;2023-08-17T09:13:10;23.10;1.00
1461;DHT22;724;49.910;12.530;2023-08-17T09:15:36;24.40;1.00
1461;DHT22;724;49.910;12.530;2023-08-17T09:18:05;25.40;1.00
1461;DHT22;724;49.910;12.530;2023-08-17T09:20:36;24.70;1.00
1461;DHT22;724;49.910;12.530;2023-08-17T09:23:10;25.00;1.00
1461;DHT22;724;49.910;12.530;2023-08-17T09:25:38;27.40;1.00
1461;DHT22;724;49.910;12.530;2023-08-17T09:28:10;26.40;1.00
1461;DHT22;724;49.910;12.530;2023-08-17T09:30:50;27.30;1.00
1461;DHT22;724;49.910;12.530;2023-08-17T09:33:18;27.20;1.00
1461;DHT22;724;49.910;12.530;2023-08-17T09:35:44;27.70;1.00
1461;DHT22;724;49.910;12.530;2023-08-17T09:38:12;27.30;1.00
1461;DHT22;724;49.910;12.530;2023-08-17T09:40:39;28.70;1.00
1461;DHT22;724;49.910;12.530;2023-08-17T09:43:06;27.30;1.00
1461;DHT22;724;49.910;12.530;2023-08-17T09:45:35;28.10;1.00
1461;DHT22;724;49.910;12.530;2023-08-17T09:48:02;26.00;1.00
1461;DHT22;724;49.910;12.530;2023-08-17T09:50:32;27.70;1.00
1461;DHT22;724;49.910;12.530;2023-08-17T09:52:59;28.60;1.00
1461;DHT22;724;49.910;12.530;2023-08-17T09:55:29;27.50;99.90
1461;DHT22;724;49.910;12.530;2023-08-17T09:57:57;28.10;1.00
1461;DHT22;724;49.910;12.530;2023-08-17T10:00:25;28.10;1.00
1461;DHT22;724;49.910;12.530;2023-08-17T10:02:52;27.70;99.90
1461;DHT22;724;49.910;12.530;2023-08-17T10:05:20;29.10;99.90
1461;DHT22;724;49.910;12.530;2023-08-17T10:07:50;28.20;99.90
1461;DHT22;724;49.910;12.530;2023-08-17T10:10:22;28.70;99.90
1461;DHT22;724;49.910;12.530;2023-08-17T10:12:59;28.80;99.90
1461;DHT22;724;49.910;12.530;2023-08-17T10:15:30;28.40;99.90
1461;DHT22;724;49.910;12.530;2023-08-17T10:18:02;29.00;99.90
1461;DHT22;724;49.910;12.530;2023-08-17T10:20:34;29.20;99.90
1461;DHT22;724;49.910;12.530;2023-08-17T10:23:07;30.20;99.90
1461;DHT22;724;49.910;12.530;2023-08-17T10:25:37;28.40;99.90
1461;DHT22;724;49.910;12.530;2023-08-17T10:28:08;29.80;99.90
1461;DHT22;724;49.910;12.530;2023-08-17T10:30:36;31.10;99.90
1461;DHT22;724;49.910;12.530;2023-08-17T10:33:04;29.70;99.90
1461;DHT22;724;49.910;12.530;2023-08-17T10:35:32;30.60;99.90
1461;DHT22;724;49.910;12.530;2023-08-17T10:37:59;31.50;99.90
1461;DHT22;724;49.910;12.530;2023-08-17T10:40:27;30.30;99.90
1461;DHT22;724;49.910;12.530;2023-08-17T10:42:54;29.90;99.90
1461;DHT22;724;49.910;12.530;2023-08-17T10:45:28;29.90;99.90
1461;DHT22;724;49.910;12.530;2023-08-17T10:48:26;29.80;99.90
1461;DHT22;724;49.910;12.530;2023-08-17T10:51:02;30.50;99.90
1461;DHT22;724;49.910;12.530;2023-08-17T10:53:34;28.00;99.90
1461;DHT22;724;49.910;12.530;2023-08-17T10:56:07;27.80;99.90
1461;DHT22;724;49.910;12.530;2023-08-17T10:58:34;29.80;99.90
1461;DHT22;724;49.910;12.530;2023-08-17T11:01:02;30.30;99.90
1461;DHT22;724;49.910;12.530;2023-08-17T11:03:29;29.80;99.90
1461;DHT22;724;49.910;12.530;2023-08-17T11:05:56;28.60;99.90
1461;DHT22;724;49.910;12.530;2023-08-17T11:08:27;27.60;99.90
1461;DHT22;724;49.910;12.530;2023-08-17T11:11:01;28.90;99.90
1461;DHT22;724;49.910;12.530;2023-08-17T11:13:29;28.90;99.90
1461;DHT22;724;49.910;12.530;2023-08-17T11:15:58;28.70;99.90
1461;DHT22;724;49.910;12.530;2023-08-17T11:18:26;29.00;99.90
1461;DHT22;724;49.910;12.530;2023-08-17T11:20:53;29.10;99.90
1461;DHT22;724;49.910;12.530;2023-08-17T11:23:23;29.70;99.90
1461;DHT22;724;49.910;12.530;2023-08-17T11:28:24;26.90;99.90
1461;DHT22;724;49.910;12.530;2023-08-17T11:30:56;28.20;99.90
1461;DHT22;724;49.910;12.530;2023-08-17T11:38:36;28.40;99.90
1461;DHT22;724;49.910;12.530;2023-08-17T11:41:03;28.30;99.90
1461;DHT22;724;49.910;12.530;2023-08-17T11:43:32;27.70;99.90
1461;DHT22;724;49.910;12.530;2023-08-17T11:46:00;27.70;99.90
1461;DHT22;724;49.910;12.530;2023-08-17T11:48:27;27.30;99.90
1461;DHT22;724;49.910;12.530;2023-08-17T11:50:54;27.30;99.90
1461;DHT22;724;49.910;12.530;2023-08-17T11:53:21;27.00;99.90
1461;DHT22;724;49.910;12.530;2023-08-17T11:55:50;27.20;99.90
1461;DHT22;724;49.910;12.530;2023-08-17T11:58:17;28.10;99.90
1461;DHT22;724;49.910;12.530;2023-08-17T12:00:44;27.80;99.90
1461;DHT22;724;49.910;12.530;2023-08-17T12:03:15;27.70;99.90
1461;DHT22;724;49.910;12.530;2023-08-17T12:05:43;27.10;99.90
1461;DHT22;724;49.910;12.530;2023-08-17T12:08:12;27.60;99.90
1461;DHT22;724;49.910;12.530;2023-08-17T12:10:39;27.50;99.90
1461;DHT22;724;49.910;12.530;2023-08-17T12:13:11;27.40;99.90
1461;DHT22;724;49.910;12.530;2023-08-17T12:15:38;27.80;99.90
1461;DHT22;724;49.910;12.530;2023-08-17T12:18:05;27.90;99.90
1461;DHT22;724;49.910;12.530;2023-08-17T12:20:33;27.80;99.90
1461;DHT22;724;49.910;12.530;2023-08-17T12:23:02;28.10;99.90
1461;DHT22;724;49.910;12.530;2023-08-17T12:25:29;28.00;99.90
1461;DHT22;724;49.910;12.530;2023-08-17T12:27:58;27.90;99.90
1461;DHT22;724;49.910;12.530;2023-08-17T12:30:28;28.00;99.90
1461;DHT22;724;49.910;12.530;2023-08-17T12:32:56;28.00;99.90
1461;DHT22;724;49.910;12.530;2023-08-17T12:35:23;28.00;99.90
1461;DHT22;724;49.910;12.530;2023-08-17T12:37:51;27.90;99.90
1461;DHT22;724;49.910;12.530;2023-08-17T12:40:17;27.80;99.90
1461;DHT22;724;49.910;12.530;2023-08-17T12:42:44;27.70;99.90
1461;DHT22;724;49.910;12.530;2023-08-17T12:45:11;28.00;99.90
1461;DHT22;724;49.910;12.530;2023-08-17T12:47:40;27.70;99.90
1461;DHT22;724;49.910;12.530;2023-08-17T12:50:07;27.50;99.90
1461;DHT22;724;49.910;12.530;2023-08-17T12:52:34;27.60;99.90
1461;DHT22;724;49.910;12.530;2023-08-17T12:55:01;27.70;99.90
1461;DHT22;724;49.910;12.530;2023-08-17T12:57:28;27.90;99.90
1461;DHT22;724;49.910;12.530;2023-08-17T12:59:55;27.80;99.90
1461;DHT22;724;49.910;12.530;2023-08-17T13:02:22;27.80;99.90
1461;DHT22;724;49.910;12.530;2023-08-17T13:04:51;27.80;99.90
1461;DHT22;724;49.910;12.530;2023-08-17T13:07:17;28.50;99.90
1461;DHT22;724;49.910;12.530;2023-08-17T13:09:44;28.20;99.90
1461;DHT22;724;49.910;12.530;2023-08-17T13:12:12;27.40;99.90
1461;DHT22;724;49.910;12.530;2023-08-17T13:14:38;27.90;99.90
1461;DHT22;724;49.910;12.530;2023-08-17T13:17:05;28.30;99.90
1461;DHT22;724;49.910;12.530;2023-08-17T13:19:32;27.90;99.90
1461;DHT22;724;49.910;12.530;2023-08-17T13:22:00;27.90;99.90
1461;DHT22;724;49.910;12.530;2023-08-17T13:24:28;28.10;99.90
1461;DHT22;724;49.910;12.530;2023-08-17T13:26:55;28.20;99.90
1461;DHT22;724;49.910;12.530;2023-08-17T13:29:22;28.40;99.90
1461;DHT22;724;49.910;12.530;2023-08-17T13:31:49;28.60;99.90
1461;DHT22;724;49.910;12.530;2023-08-17T13:34:16;28.10;99.90
1461;DHT22;724;49.910;12.530;2023-08-17T13:36:43;27.60;99.90
1461;DHT22;724;49.910;12.530;2023-08-17T13:39:11;28.00;99.90
1461;DHT22;724;49.910;12.530;2023-08-17T13:41:38;28.00;99.90
1461;DHT22;724;49.910;12.530;2023-08-17T13:44:06;28.00;99.90
1461;DHT22;724;49.910;12.530;2023-08-17T13:46:32;28.30;99.90
1461;DHT22;724;49.910;12.530;2023-08-17T13:48:59;28.50;99.90
1461;DHT22;724;49.910;12.530;2023-08-17T13:51:26;28.60;99.90
1461;DHT22;724;49.910;12.530;2023-08-17T13:53:52;28.50;99.90
1461;DHT22;724;49.910;12.530;2023-08-17T13:56:21;28.10;99.90
1461;DHT22;724;49.910;12.530;2023-08-17T13:58:47;28.40;99.90
1461;DHT22;724;49.910;12.530;2023-08-17T14:01:14;28.30;99.90
1461;DHT22;724;49.910;12.530;2023-08-17T14:03:42;27.60;99.50
1461;DHT22;724;49.910;12.530;2023-08-17T14:06:09;27.70;99.90
1461;DHT22;724;49.910;12.530;2023-08-17T14:08:36;27.90;98.60
1461;DHT22;724;49.910;12.530;2023-08-17T14:11:04;28.30;99.60
1461;DHT22;724;49.910;12.530;2023-08-17T14:13:33;28.60;95.20
1461;DHT22;724;49.910;12.530;2023-08-17T14:16:01;28.70;95.00
1461;DHT22;724;49.910;12.530;2023-08-17T14:18:28;28.50;91.20
1461;DHT22;724;49.910;12.530;2023-08-17T14:20:55;28.10;76.00
1461;DHT22;724;49.910;12.530;2023-08-17T14:23:22;28.30;86.80
1461;DHT22;724;49.910;12.530;2023-08-17T14:25:48;28.20;85.50
1461;DHT22;724;49.910;12.530;2023-08-17T14:28:17;28.20;68.60
1461;DHT22;724;49.910;12.530;2023-08-17T14:30:45;28.00;66.70
1461;DHT22;724;49.910;12.530;2023-08-17T14:33:12;28.30;66.60
1461;DHT22;724;49.910;12.530;2023-08-17T14:35:40;28.20;55.30
1461;DHT22;724;49.910;12.530;2023-08-17T14:38:06;28.10;52.10
1461;DHT22;724;49.910;12.530;2023-08-17T14:40:34;28.20;47.80
1461;DHT22;724;49.910;12.530;2023-08-17T14:43:01;28.00;54.70
1461;DHT22;724;49.910;12.530;2023-08-17T14:45:28;27.60;23.40
1461;DHT22;724;49.910;12.530;2023-08-17T14:47:56;27.60;29.00
1461;DHT22;724;49.910;12.530;2023-08-17T14:50:24;27.80;11.20
1461;DHT22;724;49.910;12.530;2023-08-17T14:52:51;27.80;17.40
1461;DHT22;724;49.910;12.530;2023-08-17T14:55:17;27.80;15.10
1461;DHT22;724;49.910;12.530;2023-08-17T14:57:43;27.40;12.70
1461;DHT22;724;49.910;12.530;2023-08-17T15:00:11;27.70;18.00
1461;DHT22;724;49.910;12.530;2023-08-17T15:02:38;27.60;23.80
1461;DHT22;724;49.910;12.530;2023-08-17T15:05:07;27.30;27.10
1461;DHT22;724;49.910;12.530;2023-08-17T15:07:34;27.10;29.60
1461;DHT22;724;49.910;12.530;2023-08-17T15:10:01;26.90;35.20
1461;DHT22;724;49.910;12.530;2023-08-17T15:12:27;26.70;29.60
1461;DHT22;724;49.910;12.530;2023-08-17T15:14:54;26.60;35.40
1461;DHT22;724;49.910;12.530;2023-08-17T15:17:21;26.60;42.70
1461;DHT22;724;49.910;12.530;2023-08-17T15:19:48;26.60;40.80
1461;DHT22;724;49.910;12.530;2023-08-17T15:22:16;26.50;44.00
1461;DHT22;724;49.910;12.530;2023-08-17T15:24:43;26.40;40.30
1461;DHT22;724;49.910;12.530;2023-08-17T15:27:10;26.60;46.50
1461;DHT22;724;49.910;12.530;2023-08-17T15:29:37;26.30;46.40
1461;DHT22;724;49.910;12.530;2023-08-17T15:32:05;26.60;52.50
1461;DHT22;724;49.910;12.530;2023-08-17T15:34:31;26.50;54.80
1461;DHT22;724;49.910;12.530;2023-08-17T15:36:59;26.50;54.00
1461;DHT22;724;49.910;12.530;2023-08-17T15:39:27;26.60;53.80
1461;DHT22;724;49.910;12.530;2023-08-17T15:41:55;26.50;55.60
1461;DHT22;724;49.910;12.530;2023-08-17T15:44:22;26.40;57.50
1461;DHT22;724;49.910;12.530;2023-08-17T15:46:49;26.40;61.40
1461;DHT22;724;49.910;12.530;2023-08-17T15:49:15;26.50;68.60
1461;DHT22;724;49.910;12.530;2023-08-17T15:51:42;26.50;69.30
1461;DHT22;724;49.910;12.530;2023-08-17T15:54:09;26.50;75.00
1461;DHT22;724;49.910;12.530;2023-08-17T15:56:37;26.50;74.20
1461;DHT22;724;49.910;12.530;2023-08-17T15:59:04;26.60;83.60
1461;DHT22;724;49.910;12.530;2023-08-17T16:01:30;26.60;93.90
1461;DHT22;724;49.910;12.530;2023-08-17T16:03:57;26.10;99.90
1461;DHT22;724;49.910;12.530;2023-08-17T16:06:24;25.30;94.90
1461;DHT22;724;49.910;12.530;2023-08-17T16:08:51;24.70;97.40
1461;DHT22;724;49.910;12.530;2023-08-17T16:11:18;24.20;99.90
1461;DHT22;724;49.910;12.530;2023-08-17T16:13:46;23.80;99.90
1461;DHT22;724;49.910;12.530;2023-08-17T16:16:13;23.50;99.90